sensor_id;sensor_type;location;lat;lon;timestamp;P1;durP1;ratioP1;P2;durP2;ratioP2
50128;SDS011;36026;45.478;9.224;2024-01-27T00:01:20;93.95;;;59.47;;
50128;SDS011;36026;45.478;9.224;2024-01-27T00:04:22;89.82;;;56.20;;
50128;SDS011;36026;45.478;9.224;2024-01-27T00:07:23;92.22;;;56.70;;
50128;SDS011;36026;45.478;9.224;2024-01-27T00:10:28;90.35;;;56.58;;
50128;SDS011;36026;45.478;9.224;2024-01-27T00:13:31;116.70;;;71.60;;
50128;SDS011;36026;45.478;9.224;2024-01-27T00:16:32;228.40;;;124.55;;
50128;SDS011;36026;45.478;9.224;2024-01-27T00:19:34;193.33;;;104.23;;
50128;SDS011;36026;45.478;9.224;2024-01-27T00:22:35;132.87;;;77.47;;
50128;SDS011;36026;45.478;9.224;2024-01-27T00:25:37;138.70;;;84.57;;
50128;SDS011;36026;45.478;9.224;2024-01-27T00:28:40;168.15;;;102.13;;
50128;SDS011;36026;45.478;9.224;2024-01-27T00:31:41;135.13;;;85.43;;
50128;SDS011;36026;45.478;9.224;2024-01-27T00:34:44;189.60;;;111.13;;
50128;SDS011;36026;45.478;9.224;2024-01-27T00:37:45;124.10;;;79.50;;
50128;SDS011;36026;45.478;9.224;2024-01-27T00:40:47;106.72;;;72.05;;
50128;SDS011;36026;45.478;9.224;2024-01-27T00:43:50;107.17;;;70.03;;
50128;SDS011;36026;45.478;9.224;2024-01-27T00:46:51;101.03;;;66.13;;
50128;SDS011;36026;45.478;9.224;2024-01-27T00:49:53;102.70;;;67.47;;
50128;SDS011;36026;45.478;9.224;2024-01-27T00:52:54;102.15;;;67.13;;
50128;SDS011;36026;45.478;9.224;2024-01-27T00:55:56;101.20;;;67.40;;
50128;SDS011;36026;45.478;9.224;2024-01-27T00:58:59;104.60;;;69.18;;
50128;SDS011;36026;45.478;9.224;2024-01-27T01:02:01;103.33;;;67.23;;
50128;SDS011;36026;45.478;9.224;2024-01-27T01:05:03;104.03;;;67.57;;
50128;SDS011;36026;45.478;9.224;2024-01-27T01:08:05;98.68;;;64.57;;
50128;SDS011;36026;45.478;9.224;2024-01-27T01:11:07;100.70;;;65.60;;
50128;SDS011;36026;45.478;9.224;2024-01-27T01:14:11;97.63;;;63.92;;
50128;SDS011;36026;45.478;9.224;2024-01-27T01:17:12;100.65;;;64.20;;
50128;SDS011;36026;45.478;9.224;2024-01-27T01:20:14;100.15;;;64.72;;
50128;SDS011;36026;45.478;9.224;2024-01-27T01:23:15;101.82;;;65.75;;
50128;SDS011;36026;45.478;9.224;2024-01-27T01:26:17;101.82;;;65.60;;
50128;SDS011;36026;45.478;9.224;2024-01-27T01:29:20;103.28;;;67.32;;
50128;SDS011;36026;45.478;9.224;2024-01-27T01:32:22;102.55;;;65.03;;
50128;SDS011;36026;45.478;9.224;2024-01-27T01:35:24;100.10;;;65.22;;
50128;SDS011;36026;45.478;9.224;2024-01-27T01:38:25;101.72;;;67.57;;
50128;SDS011;36026;45.478;9.224;2024-01-27T01:41:27;104.03;;;65.97;;
50128;SDS011;36026;45.478;9.224;2024-01-27T01:44:30;96.10;;;64.97;;
50128;SDS011;36026;45.478;9.224;2024-01-27T01:47:32;99.38;;;63.92;;
50128;SDS011;36026;45.478;9.224;2024-01-27T01:50:33;104.72;;;67.25;;
50128;SDS011;36026;45.478;9.224;2024-01-27T01:53:35;104.28;;;68.78;;
50128;SDS011;36026;45.478;9.224;2024-01-27T01:56:37;102.47;;;65.72;;
50128;SDS011;36026;45.478;9.224;2024-01-27T01:59:40;103.80;;;66.40;;
50128;SDS011;36026;45.478;9.224;2024-01-27T02:02:42;104.20;;;64.63;;
50128;SDS011;36026;45.478;9.224;2024-01-27T02:05:44;100.95;;;66.35;;
50128;SDS011;36026;45.478;9.224;2024-01-27T02:08:45;102.60;;;65.03;;
50128;SDS011;36026;45.478;9.224;2024-01-27T02:11:47;98.18;;;63.45;;
50128;SDS011;36026;45.478;9.224;2024-01-27T02:14:50;94.78;;;62.97;;
50128;SDS011;36026;45.478;9.224;2024-01-27T02:17:51;89.63;;;59.72;;
50128;SDS011;36026;45.478;9.224;2024-01-27T02:20:53;91.32;;;59.88;;
50128;SDS011;36026;45.478;9.224;2024-01-27T02:23:54;88.18;;;59.40;;
50128;SDS011;36026;45.478;9.224;2024-01-27T02:26:58;88.50;;;58.65;;
50128;SDS011;36026;45.478;9.224;2024-01-27T02:29:59;86.22;;;57.00;;
50128;SDS011;36026;45.478;9.224;2024-01-27T02:33:01;87.40;;;57.22;;
50128;SDS011;36026;45.478;9.224;2024-01-27T02:36:03;84.03;;;56.28;;
50128;SDS011;36026;45.478;9.224;2024-01-27T02:39:04;89.80;;;57.83;;
50128;SDS011;36026;45.478;9.224;2024-01-27T02:42:07;86.32;;;56.20;;
50128;SDS011;36026;45.478;9.224;2024-01-27T02:45:09;86.57;;;56.53;;
50128;SDS011;36026;45.478;9.224;2024-01-27T02:48:11;91.05;;;58.90;;
50128;SDS011;36026;45.478;9.224;2024-01-27T02:51:18;85.72;;;55.55;;
50128;SDS011;36026;45.478;9.224;2024-01-27T02:54:20;84.07;;;54.83;;
50128;SDS011;36026;45.478;9.224;2024-01-27T02:57:23;82.95;;;55.10;;
50128;SDS011;36026;45.478;9.224;2024-01-27T03:00:24;84.60;;;55.38;;
50128;SDS011;36026;45.478;9.224;2024-01-27T03:03:26;84.85;;;53.80;;
50128;SDS011;36026;45.478;9.224;2024-01-27T03:06:29;83.53;;;53.50;;
50128;SDS011;36026;45.478;9.224;2024-01-27T03:09:31;78.78;;;52.58;;
50128;SDS011;36026;45.478;9.224;2024-01-27T03:12:35;81.07;;;53.40;;
50128;SDS011;36026;45.478;9.224;2024-01-27T03:15:36;81.78;;;53.33;;
50128;SDS011;36026;45.478;9.224;2024-01-27T03:18:39;82.17;;;53.80;;
50128;SDS011;36026;45.478;9.224;2024-01-27T03:21:40;83.43;;;54.43;;
50128;SDS011;36026;45.478;9.224;2024-01-27T03:24:42;83.60;;;54.28;;
50128;SDS011;36026;45.478;9.224;2024-01-27T03:27:48;79.63;;;52.58;;
50128;SDS011;36026;45.478;9.224;2024-01-27T03:30:51;79.73;;;52.97;;
50128;SDS011;36026;45.478;9.224;2024-01-27T03:33:52;78.70;;;51.42;;
50128;SDS011;36026;45.478;9.224;2024-01-27T03:36:54;79.40;;;52.80;;
50128;SDS011;36026;45.478;9.224;2024-01-27T03:39:56;77.70;;;51.27;;
50128;SDS011;36026;45.478;9.224;2024-01-27T03:42:58;77.47;;;51.03;;
50128;SDS011;36026;45.478;9.224;2024-01-27T03:46:00;75.75;;;51.33;;
50128;SDS011;36026;45.478;9.224;2024-01-27T03:49:03;74.80;;;50.42;;
50128;SDS011;36026;45.478;9.224;2024-01-27T03:52:05;75.20;;;49.75;;
50128;SDS011;36026;45.478;9.224;2024-01-27T03:55:06;76.17;;;50.77;;
50128;SDS011;36026;45.478;9.224;2024-01-27T03:58:10;77.00;;;50.70;;
50128;SDS011;36026;45.478;9.224;2024-01-27T04:01:11;76.18;;;50.80;;
50128;SDS011;36026;45.478;9.224;2024-01-27T04:04:13;73.32;;;49.22;;
50128;SDS011;36026;45.478;9.224;2024-01-27T04:07:14;72.32;;;49.20;;
50128;SDS011;36026;45.478;9.224;2024-01-27T04:10:16;69.78;;;47.30;;
50128;SDS011;36026;45.478;9.224;2024-01-27T04:13:19;72.93;;;49.00;;
50128;SDS011;36026;45.478;9.224;2024-01-27T04:16:21;74.35;;;49.85;;
50128;SDS011;36026;45.478;9.224;2024-01-27T04:19:22;72.47;;;50.15;;
50128;SDS011;36026;45.478;9.224;2024-01-27T04:22:24;72.90;;;48.80;;
50128;SDS011;36026;45.478;9.224;2024-01-27T04:25:25;71.18;;;49.03;;
50128;SDS011;36026;45.478;9.224;2024-01-27T04:28:29;70.55;;;48.47;;
50128;SDS011;36026;45.478;9.224;2024-01-27T04:31:31;66.45;;;46.65;;
50128;SDS011;36026;45.478;9.224;2024-01-27T04:34:33;67.47;;;46.27;;
50128;SDS011;36026;45.478;9.224;2024-01-27T04:37:35;65.13;;;44.72;;
50128;SDS011;36026;45.478;9.224;2024-01-27T04:40:36;65.00;;;45.15;;
50128;SDS011;36026;45.478;9.224;2024-01-27T04:43:39;62.47;;;44.95;;
50128;SDS011;36026;45.478;9.224;2024-01-27T04:46:41;65.28;;;45.45;;
50128;SDS011;36026;45.478;9.224;2024-01-27T04:49:42;66.07;;;45.05;;
50128;SDS011;36026;45.478;9.224;2024-01-27T04:52:44;66.93;;;45.10;;
50128;SDS011;36026;45.478;9.224;2024-01-27T04:55:45;68.03;;;46.15;;
50128;SDS011;36026;45.478;9.224;2024-01-27T04:58:49;69.53;;;46.53;;
50128;SDS011;36026;45.478;9.224;2024-01-27T05:01:50;65.97;;;44.38;;
50128;SDS011;36026;45.478;9.224;2024-01-27T05:04:52;64.38;;;45.13;;
50128;SDS011;36026;45.478;9.224;2024-01-27T05:07:54;63.40;;;43.22;;
50128;SDS011;36026;45.478;9.224;2024-01-27T05:10:55;63.80;;;44.00;;
50128;SDS011;36026;45.478;9.224;2024-01-27T05:13:58;67.10;;;45.15;;
50128;SDS011;36026;45.478;9.224;2024-01-27T05:17:00;62.88;;;43.60;;
50128;SDS011;36026;45.478;9.224;2024-01-27T05:20:02;64.60;;;43.20;;
50128;SDS011;36026;45.478;9.224;2024-01-27T05:23:04;66.20;;;43.97;;
50128;SDS011;36026;45.478;9.224;2024-01-27T05:26:06;67.55;;;44.97;;
50128;SDS011;36026;45.478;9.224;2024-01-27T05:29:09;73.38;;;46.55;;
50128;SDS011;36026;45.478;9.224;2024-01-27T05:32:13;75.87;;;48.10;;
50128;SDS011;36026;45.478;9.224;2024-01-27T05:35:14;76.80;;;47.78;;
50128;SDS011;36026;45.478;9.224;2024-01-27T05:38:16;80.22;;;49.00;;
50128;SDS011;36026;45.478;9.224;2024-01-27T05:41:17;86.78;;;50.75;;
50128;SDS011;36026;45.478;9.224;2024-01-27T05:44:20;82.55;;;49.85;;
50128;SDS011;36026;45.478;9.224;2024-01-27T05:47:22;85.88;;;52.03;;
50128;SDS011;36026;45.478;9.224;2024-01-27T05:50:23;93.00;;;51.65;;
50128;SDS011;36026;45.478;9.224;2024-01-27T05:53:25;84.10;;;50.20;;
50128;SDS011;36026;45.478;9.224;2024-01-27T05:56:27;89.63;;;52.40;;
50128;SDS011;36026;45.478;9.224;2024-01-27T05:59:30;87.73;;;51.67;;
50128;SDS011;36026;45.478;9.224;2024-01-27T06:02:31;88.32;;;52.08;;
50128;SDS011;36026;45.478;9.224;2024-01-27T06:05:36;84.22;;;49.75;;
50128;SDS011;36026;45.478;9.224;2024-01-27T06:08:38;86.77;;;50.60;;
50128;SDS011;36026;45.478;9.224;2024-01-27T06:11:40;83.70;;;50.22;;
50128;SDS011;36026;45.478;9.224;2024-01-27T06:14:43;86.25;;;51.13;;
50128;SDS011;36026;45.478;9.224;2024-01-27T06:17:44;87.25;;;51.72;;
50128;SDS011;36026;45.478;9.224;2024-01-27T06:20:48;91.13;;;52.50;;
50128;SDS011;36026;45.478;9.224;2024-01-27T06:23:51;89.35;;;52.80;;
50128;SDS011;36026;45.478;9.224;2024-01-27T06:26:53;90.35;;;53.38;;
50128;SDS011;36026;45.478;9.224;2024-01-27T06:29:56;100.43;;;56.40;;
50128;SDS011;36026;45.478;9.224;2024-01-27T06:32:58;102.95;;;57.45;;
50128;SDS011;36026;45.478;9.224;2024-01-27T06:35:59;93.45;;;54.08;;
50128;SDS011;36026;45.478;9.224;2024-01-27T06:39:01;98.90;;;54.90;;
50128;SDS011;36026;45.478;9.224;2024-01-27T06:42:02;93.32;;;54.42;;
50128;SDS011;36026;45.478;9.224;2024-01-27T06:45:06;93.40;;;54.78;;
50128;SDS011;36026;45.478;9.224;2024-01-27T06:48:08;93.70;;;54.80;;
50128;SDS011;36026;45.478;9.224;2024-01-27T06:51:10;91.72;;;54.10;;
50128;SDS011;36026;45.478;9.224;2024-01-27T06:54:11;99.35;;;56.55;;
50128;SDS011;36026;45.478;9.224;2024-01-27T06:57:19;90.95;;;54.78;;
50128;SDS011;36026;45.478;9.224;2024-01-27T07:00:23;92.20;;;53.90;;
50128;SDS011;36026;45.478;9.224;2024-01-27T07:03:24;96.53;;;56.53;;
50128;SDS011;36026;45.478;9.224;2024-01-27T07:06:26;94.32;;;55.08;;
50128;SDS011;36026;45.478;9.224;2024-01-27T07:09:27;95.35;;;55.38;;
50128;SDS011;36026;45.478;9.224;2024-01-27T07:12:30;94.63;;;55.08;;
50128;SDS011;36026;45.478;9.224;2024-01-27T07:15:33;94.30;;;56.53;;
50128;SDS011;36026;45.478;9.224;2024-01-27T07:18:36;92.27;;;55.77;;
50128;SDS011;36026;45.478;9.224;2024-01-27T07:21:38;92.83;;;54.33;;
50128;SDS011;36026;45.478;9.224;2024-01-27T07:24:40;93.10;;;56.33;;
50128;SDS011;36026;45.478;9.224;2024-01-27T07:27:41;92.30;;;54.28;;
50128;SDS011;36026;45.478;9.224;2024-01-27T07:30:47;94.70;;;55.33;;
50128;SDS011;36026;45.478;9.224;2024-01-27T07:33:49;86.03;;;52.38;;
50128;SDS011;36026;45.478;9.224;2024-01-27T07:36:50;86.53;;;52.67;;
50128;SDS011;36026;45.478;9.224;2024-01-27T07:39:52;87.25;;;52.17;;
50128;SDS011;36026;45.478;9.224;2024-01-27T07:42:53;85.25;;;51.42;;
50128;SDS011;36026;45.478;9.224;2024-01-27T07:45:56;87.50;;;52.25;;
50128;SDS011;36026;45.478;9.224;2024-01-27T07:48:58;83.05;;;50.60;;
50128;SDS011;36026;45.478;9.224;2024-01-27T07:52:00;80.55;;;48.38;;
50128;SDS011;36026;45.478;9.224;2024-01-27T07:55:01;83.97;;;49.47;;
50128;SDS011;36026;45.478;9.224;2024-01-27T07:58:03;85.33;;;50.17;;
50128;SDS011;36026;45.478;9.224;2024-01-27T08:01:07;83.32;;;50.67;;
50128;SDS011;36026;45.478;9.224;2024-01-27T08:04:08;79.53;;;48.40;;
50128;SDS011;36026;45.478;9.224;2024-01-27T08:07:10;76.68;;;46.75;;
50128;SDS011;36026;45.478;9.224;2024-01-27T08:10:14;72.07;;;43.90;;
50128;SDS011;36026;45.478;9.224;2024-01-27T08:13:16;71.18;;;44.17;;
50128;SDS011;36026;45.478;9.224;2024-01-27T08:16:19;68.35;;;43.03;;
50128;SDS011;36026;45.478;9.224;2024-01-27T08:19:21;66.40;;;40.90;;
50128;SDS011;36026;45.478;9.224;2024-01-27T08:22:23;61.95;;;39.78;;
50128;SDS011;36026;45.478;9.224;2024-01-27T08:25:24;58.40;;;38.33;;
50128;SDS011;36026;45.478;9.224;2024-01-27T08:28:26;59.25;;;38.08;;
50128;SDS011;36026;45.478;9.224;2024-01-27T08:31:29;58.97;;;37.35;;
50128;SDS011;36026;45.478;9.224;2024-01-27T08:34:30;59.10;;;36.83;;
50128;SDS011;36026;45.478;9.224;2024-01-27T08:37:32;56.53;;;36.60;;
50128;SDS011;36026;45.478;9.224;2024-01-27T08:40:38;58.38;;;36.30;;
50128;SDS011;36026;45.478;9.224;2024-01-27T08:43:40;53.17;;;34.53;;
50128;SDS011;36026;45.478;9.224;2024-01-27T08:46:43;56.67;;;35.45;;
50128;SDS011;36026;45.478;9.224;2024-01-27T08:49:44;60.15;;;37.30;;
50128;SDS011;36026;45.478;9.224;2024-01-27T08:52:46;51.90;;;35.03;;
50128;SDS011;36026;45.478;9.224;2024-01-27T08:55:48;49.33;;;33.47;;
50128;SDS011;36026;45.478;9.224;2024-01-27T08:58:50;57.28;;;36.08;;
50128;SDS011;36026;45.478;9.224;2024-01-27T09:01:54;52.65;;;35.05;;
50128;SDS011;36026;45.478;9.224;2024-01-27T09:04:55;50.70;;;33.47;;
50128;SDS011;36026;45.478;9.224;2024-01-27T09:07:57;50.72;;;32.97;;
50128;SDS011;36026;45.478;9.224;2024-01-27T09:11:00;52.42;;;34.13;;
50128;SDS011;36026;45.478;9.224;2024-01-27T09:14:02;53.97;;;34.85;;
50128;SDS011;36026;45.478;9.224;2024-01-27T09:17:06;49.28;;;32.85;;
50128;SDS011;36026;45.478;9.224;2024-01-27T09:20:09;51.42;;;33.85;;
50128;SDS011;36026;45.478;9.224;2024-01-27T09:23:10;48.73;;;32.80;;
50128;SDS011;36026;45.478;9.224;2024-01-27T09:26:12;47.13;;;31.20;;
50128;SDS011;36026;45.478;9.224;2024-01-27T09:29:14;47.60;;;31.60;;
50128;SDS011;36026;45.478;9.224;2024-01-27T09:32:16;45.80;;;31.10;;
50128;SDS011;36026;45.478;9.224;2024-01-27T09:35:18;52.72;;;35.10;;
50128;SDS011;36026;45.478;9.224;2024-01-27T09:38:20;47.50;;;31.85;;
50128;SDS011;36026;45.478;9.224;2024-01-27T09:41:22;47.47;;;33.00;;
50128;SDS011;36026;45.478;9.224;2024-01-27T09:44:23;43.17;;;31.05;;
50128;SDS011;36026;45.478;9.224;2024-01-27T09:47:27;44.90;;;32.10;;
50128;SDS011;36026;45.478;9.224;2024-01-27T09:50:29;55.13;;;37.72;;
50128;SDS011;36026;45.478;9.224;2024-01-27T09:53:30;52.75;;;36.30;;
50128;SDS011;36026;45.478;9.224;2024-01-27T09:56:32;53.00;;;36.03;;
50128;SDS011;36026;45.478;9.224;2024-01-27T09:59:34;52.55;;;36.38;;
50128;SDS011;36026;45.478;9.224;2024-01-27T10:02:38;58.58;;;38.53;;
50128;SDS011;36026;45.478;9.224;2024-01-27T10:05:40;56.17;;;37.90;;
50128;SDS011;36026;45.478;9.224;2024-01-27T10:08:43;54.95;;;36.85;;
50128;SDS011;36026;45.478;9.224;2024-01-27T10:11:48;50.63;;;35.55;;
50128;SDS011;36026;45.478;9.224;2024-01-27T10:14:50;50.63;;;36.47;;
50128;SDS011;36026;45.478;9.224;2024-01-27T10:18:03;52.55;;;36.17;;
50128;SDS011;36026;45.478;9.224;2024-01-27T10:21:12;49.83;;;35.97;;
50128;SDS011;36026;45.478;9.224;2024-01-27T10:24:13;50.50;;;35.53;;
50128;SDS011;36026;45.478;9.224;2024-01-27T10:27:16;52.58;;;37.38;;
50128;SDS011;36026;45.478;9.224;2024-01-27T10:30:18;50.75;;;36.88;;
50128;SDS011;36026;45.478;9.224;2024-01-27T10:33:21;47.95;;;36.42;;
50128;SDS011;36026;45.478;9.224;2024-01-27T10:36:23;47.65;;;36.85;;
50128;SDS011;36026;45.478;9.224;2024-01-27T10:39:26;50.05;;;37.47;;
50128;SDS011;36026;45.478;9.224;2024-01-27T10:42:29;48.47;;;37.75;;
50128;SDS011;36026;45.478;9.224;2024-01-27T10:45:34;45.45;;;35.00;;
50128;SDS011;36026;45.478;9.224;2024-01-27T10:48:37;45.47;;;35.55;;
50128;SDS011;36026;45.478;9.224;2024-01-27T10:51:40;48.47;;;36.92;;
50128;SDS011;36026;45.478;9.224;2024-01-27T10:54:44;45.00;;;35.75;;
50128;SDS011;36026;45.478;9.224;2024-01-27T10:57:46;47.45;;;35.60;;
50128;SDS011;36026;45.478;9.224;2024-01-27T11:00:48;45.75;;;35.80;;
50128;SDS011;36026;45.478;9.224;2024-01-27T11:03:53;45.78;;;35.17;;
50128;SDS011;36026;45.478;9.224;2024-01-27T11:06:56;47.80;;;35.75;;
50128;SDS011;36026;45.478;9.224;2024-01-27T11:09:57;46.80;;;35.97;;
50128;SDS011;36026;45.478;9.224;2024-01-27T11:12:59;43.85;;;35.58;;
50128;SDS011;36026;45.478;9.224;2024-01-27T11:16:01;47.20;;;36.35;;
50128;SDS011;36026;45.478;9.224;2024-01-27T11:19:04;48.08;;;35.42;;
50128;SDS011;36026;45.478;9.224;2024-01-27T11:22:06;47.17;;;36.33;;
50128;SDS011;36026;45.478;9.224;2024-01-27T11:25:08;44.72;;;35.13;;
50128;SDS011;36026;45.478;9.224;2024-01-27T11:28:16;47.75;;;35.15;;
50128;SDS011;36026;45.478;9.224;2024-01-27T11:31:20;43.60;;;33.97;;
50128;SDS011;36026;45.478;9.224;2024-01-27T11:34:23;44.40;;;34.03;;
50128;SDS011;36026;45.478;9.224;2024-01-27T11:37:25;44.58;;;33.88;;
50128;SDS011;36026;45.478;9.224;2024-01-27T11:40:31;42.63;;;33.28;;
50128;SDS011;36026;45.478;9.224;2024-01-27T11:43:33;41.78;;;32.88;;
50128;SDS011;36026;45.478;9.224;2024-01-27T11:46:35;45.83;;;35.65;;
50128;SDS011;36026;45.478;9.224;2024-01-27T11:49:38;43.70;;;33.05;;
50128;SDS011;36026;45.478;9.224;2024-01-27T11:52:40;42.13;;;32.92;;
50128;SDS011;36026;45.478;9.224;2024-01-27T11:55:41;40.53;;;31.63;;
50128;SDS011;36026;45.478;9.224;2024-01-27T11:58:46;42.60;;;33.63;;
50128;SDS011;36026;45.478;9.224;2024-01-27T12:01:48;39.78;;;31.05;;
50128;SDS011;36026;45.478;9.224;2024-01-27T12:04:52;40.03;;;31.58;;
50128;SDS011;36026;45.478;9.224;2024-01-27T12:07:53;41.15;;;31.67;;
50128;SDS011;36026;45.478;9.224;2024-01-27T12:10:56;41.67;;;32.42;;
50128;SDS011;36026;45.478;9.224;2024-01-27T12:13:58;44.20;;;34.90;;
50128;SDS011;36026;45.478;9.224;2024-01-27T12:17:00;41.85;;;32.85;;
50128;SDS011;36026;45.478;9.224;2024-01-27T12:20:04;40.40;;;32.03;;
50128;SDS011;36026;45.478;9.224;2024-01-27T12:23:15;40.90;;;32.05;;
50128;SDS011;36026;45.478;9.224;2024-01-27T12:26:16;40.03;;;31.73;;
50128;SDS011;36026;45.478;9.224;2024-01-27T12:29:19;42.27;;;33.80;;
50128;SDS011;36026;45.478;9.224;2024-01-27T12:32:21;39.58;;;31.23;;
50128;SDS011;36026;45.478;9.224;2024-01-27T12:35:25;38.00;;;31.42;;
50128;SDS011;36026;45.478;9.224;2024-01-27T12:38:29;39.65;;;31.30;;
50128;SDS011;36026;45.478;9.224;2024-01-27T12:41:30;36.22;;;30.48;;
50128;SDS011;36026;45.478;9.224;2024-01-27T12:44:33;36.87;;;30.33;;
50128;SDS011;36026;45.478;9.224;2024-01-27T12:47:35;37.30;;;30.08;;
50128;SDS011;36026;45.478;9.224;2024-01-27T12:50:38;36.90;;;30.27;;
50128;SDS011;36026;45.478;9.224;2024-01-27T12:53:40;36.17;;;29.50;;
50128;SDS011;36026;45.478;9.224;2024-01-27T12:56:44;33.95;;;29.45;;
50128;SDS011;36026;45.478;9.224;2024-01-27T12:59:45;35.95;;;29.48;;
50128;SDS011;36026;45.478;9.224;2024-01-27T13:02:48;34.63;;;29.15;;
50128;SDS011;36026;45.478;9.224;2024-01-27T13:05:51;35.40;;;29.98;;
50128;SDS011;36026;45.478;9.224;2024-01-27T13:08:52;35.38;;;29.27;;
50128;SDS011;36026;45.478;9.224;2024-01-27T13:11:54;33.73;;;27.83;;
50128;SDS011;36026;45.478;9.224;2024-01-27T13:14:55;31.90;;;27.00;;
50128;SDS011;36026;45.478;9.224;2024-01-27T13:17:57;34.50;;;27.70;;
50128;SDS011;36026;45.478;9.224;2024-01-27T13:21:00;32.67;;;27.48;;
50128;SDS011;36026;45.478;9.224;2024-01-27T13:24:02;35.45;;;28.00;;
50128;SDS011;36026;45.478;9.224;2024-01-27T13:27:04;32.22;;;26.42;;
50128;SDS011;36026;45.478;9.224;2024-01-27T13:30:06;33.25;;;27.60;;
50128;SDS011;36026;45.478;9.224;2024-01-27T13:33:08;31.25;;;25.88;;
50128;SDS011;36026;45.478;9.224;2024-01-27T13:36:11;31.08;;;26.55;;
50128;SDS011;36026;45.478;9.224;2024-01-27T13:39:12;34.00;;;28.90;;
50128;SDS011;36026;45.478;9.224;2024-01-27T13:42:14;34.38;;;28.10;;
50128;SDS011;36026;45.478;9.224;2024-01-27T13:45:15;31.55;;;28.00;;
50128;SDS011;36026;45.478;9.224;2024-01-27T13:48:17;31.95;;;27.20;;
50128;SDS011;36026;45.478;9.224;2024-01-27T13:51:20;33.67;;;28.13;;
50128;SDS011;36026;45.478;9.224;2024-01-27T13:54:22;32.17;;;26.17;;
50128;SDS011;36026;45.478;9.224;2024-01-27T13:57:25;30.02;;;26.48;;
50128;SDS011;36026;45.478;9.224;2024-01-27T14:00:29;30.92;;;27.08;;
50128;SDS011;36026;45.478;9.224;2024-01-27T14:03:30;28.52;;;25.42;;
50128;SDS011;36026;45.478;9.224;2024-01-27T14:06:33;27.80;;;24.50;;
50128;SDS011;36026;45.478;9.224;2024-01-27T14:09:36;28.48;;;24.35;;
50128;SDS011;36026;45.478;9.224;2024-01-27T14:12:37;27.45;;;24.33;;
50128;SDS011;36026;45.478;9.224;2024-01-27T14:15:39;27.63;;;24.63;;
50128;SDS011;36026;45.478;9.224;2024-01-27T14:18:41;29.30;;;25.45;;
50128;SDS011;36026;45.478;9.224;2024-01-27T14:21:44;28.10;;;24.10;;
50128;SDS011;36026;45.478;9.224;2024-01-27T14:24:46;30.42;;;26.48;;
50128;SDS011;36026;45.478;9.224;2024-01-27T14:27:47;34.38;;;27.92;;
50128;SDS011;36026;45.478;9.224;2024-01-27T14:30:49;30.88;;;27.00;;
50128;SDS011;36026;45.478;9.224;2024-01-27T14:33:51;33.53;;;26.70;;
50128;SDS011;36026;45.478;9.224;2024-01-27T14:36:54;32.75;;;27.20;;
50128;SDS011;36026;45.478;9.224;2024-01-27T14:39:56;32.53;;;26.20;;
50128;SDS011;36026;45.478;9.224;2024-01-27T14:42:57;28.33;;;24.75;;
50128;SDS011;36026;45.478;9.224;2024-01-27T14:45:59;28.25;;;24.83;;
50128;SDS011;36026;45.478;9.224;2024-01-27T14:49:00;29.50;;;25.23;;
50128;SDS011;36026;45.478;9.224;2024-01-27T14:52:04;29.50;;;25.52;;
50128;SDS011;36026;45.478;9.224;2024-01-27T14:55:05;29.88;;;24.90;;
50128;SDS011;36026;45.478;9.224;2024-01-27T14:58:08;32.50;;;26.80;;
50128;SDS011;36026;45.478;9.224;2024-01-27T15:01:09;32.85;;;28.38;;
50128;SDS011;36026;45.478;9.224;2024-01-27T15:04:13;33.88;;;27.92;;
50128;SDS011;36026;45.478;9.224;2024-01-27T15:07:17;33.13;;;27.55;;
50128;SDS011;36026;45.478;9.224;2024-01-27T15:10:18;32.90;;;27.02;;
50128;SDS011;36026;45.478;9.224;2024-01-27T15:13:21;32.28;;;26.98;;
50128;SDS011;36026;45.478;9.224;2024-01-27T15:16:23;35.37;;;28.97;;
50128;SDS011;36026;45.478;9.224;2024-01-27T15:19:26;36.73;;;30.27;;
50128;SDS011;36026;45.478;9.224;2024-01-27T15:22:29;37.53;;;31.53;;
50128;SDS011;36026;45.478;9.224;2024-01-27T15:25:31;38.47;;;31.73;;
50128;SDS011;36026;45.478;9.224;2024-01-27T15:28:33;37.70;;;30.55;;
50128;SDS011;36026;45.478;9.224;2024-01-27T15:31:34;41.53;;;34.40;;
50128;SDS011;36026;45.478;9.224;2024-01-27T15:34:36;115.20;;;81.35;;
50128;SDS011;36026;45.478;9.224;2024-01-27T15:37:39;95.00;;;62.30;;
50128;SDS011;36026;45.478;9.224;2024-01-27T15:40:43;129.70;;;80.00;;
50128;SDS011;36026;45.478;9.224;2024-01-27T15:43:46;86.80;;;56.15;;
50128;SDS011;36026;45.478;9.224;2024-01-27T15:46:49;52.42;;;38.95;;
50128;SDS011;36026;45.478;9.224;2024-01-27T15:49:51;48.30;;;36.90;;
50128;SDS011;36026;45.478;9.224;2024-01-27T15:52:58;47.13;;;36.43;;
50128;SDS011;36026;45.478;9.224;2024-01-27T15:56:00;49.55;;;38.30;;
50128;SDS011;36026;45.478;9.224;2024-01-27T15:59:01;50.38;;;38.25;;
50128;SDS011;36026;45.478;9.224;2024-01-27T16:02:03;49.97;;;38.90;;
50128;SDS011;36026;45.478;9.224;2024-01-27T16:05:05;49.80;;;38.30;;
50128;SDS011;36026;45.478;9.224;2024-01-27T16:08:08;49.93;;;38.07;;
50128;SDS011;36026;45.478;9.224;2024-01-27T16:11:10;50.58;;;38.20;;
50128;SDS011;36026;45.478;9.224;2024-01-27T16:14:12;52.85;;;39.25;;
50128;SDS011;36026;45.478;9.224;2024-01-27T16:17:14;55.10;;;40.65;;
50128;SDS011;36026;45.478;9.224;2024-01-27T16:20:15;56.42;;;41.83;;
50128;SDS011;36026;45.478;9.224;2024-01-27T16:23:19;60.92;;;43.97;;
50128;SDS011;36026;45.478;9.224;2024-01-27T16:26:20;57.80;;;42.42;;
50128;SDS011;36026;45.478;9.224;2024-01-27T16:29:22;61.63;;;45.30;;
50128;SDS011;36026;45.478;9.224;2024-01-27T16:32:24;60.47;;;44.45;;
50128;SDS011;36026;45.478;9.224;2024-01-27T16:35:26;59.20;;;44.17;;
50128;SDS011;36026;45.478;9.224;2024-01-27T16:38:29;59.38;;;43.42;;
50128;SDS011;36026;45.478;9.224;2024-01-27T16:41:30;60.47;;;44.30;;
50128;SDS011;36026;45.478;9.224;2024-01-27T16:44:32;56.67;;;43.83;;
50128;SDS011;36026;45.478;9.224;2024-01-27T16:47:34;61.38;;;44.50;;
50128;SDS011;36026;45.478;9.224;2024-01-27T16:50:36;57.63;;;42.67;;
50128;SDS011;36026;45.478;9.224;2024-01-27T16:53:39;58.95;;;42.97;;
50128;SDS011;36026;45.478;9.224;2024-01-27T16:56:41;57.80;;;44.00;;
50128;SDS011;36026;45.478;9.224;2024-01-27T16:59:43;60.05;;;43.92;;
50128;SDS011;36026;45.478;9.224;2024-01-27T17:02:47;59.92;;;42.88;;
50128;SDS011;36026;45.478;9.224;2024-01-27T17:05:48;60.03;;;43.28;;
50128;SDS011;36026;45.478;9.224;2024-01-27T17:08:54;59.75;;;43.97;;
50128;SDS011;36026;45.478;9.224;2024-01-27T17:11:56;61.00;;;44.75;;
50128;SDS011;36026;45.478;9.224;2024-01-27T17:14:57;64.80;;;45.47;;
50128;SDS011;36026;45.478;9.224;2024-01-27T17:17:59;63.23;;;46.37;;
50128;SDS011;36026;45.478;9.224;2024-01-27T17:21:01;62.07;;;44.30;;
50128;SDS011;36026;45.478;9.224;2024-01-27T17:24:06;60.72;;;45.22;;
50128;SDS011;36026;45.478;9.224;2024-01-27T17:27:11;62.15;;;45.92;;
50128;SDS011;36026;45.478;9.224;2024-01-27T17:30:16;63.28;;;45.90;;
50128;SDS011;36026;45.478;9.224;2024-01-27T17:33:18;62.00;;;44.92;;
50128;SDS011;36026;45.478;9.224;2024-01-27T17:36:21;63.13;;;45.90;;
50128;SDS011;36026;45.478;9.224;2024-01-27T17:39:24;63.20;;;45.42;;
50128;SDS011;36026;45.478;9.224;2024-01-27T17:42:26;64.38;;;45.83;;
50128;SDS011;36026;45.478;9.224;2024-01-27T17:45:28;66.68;;;46.75;;